sensor_id;sensor_type;location;lat;lon;timestamp;P1;durP1;ratioP1;P2;durP2;ratioP2
39276;SDS011;63149;48.086;-1.606;2023-01-10T06:00:14;29.50;;;4.30;;
39276;SDS011;63149;48.086;-1.606;2023-01-10T06:02:41;18.00;;;2.93;;
39276;SDS011;63149;48.086;-1.606;2023-01-10T06:05:08;24.83;;;3.72;;
39276;SDS011;63149;48.086;-1.606;2023-01-10T06:07:35;26.90;;;4.70;;
39276;SDS011;63149;48.086;-1.606;2023-01-10T06:10:03;24.98;;;4.45;;
39276;SDS011;63149;48.086;-1.606;2023-01-10T06:12:30;23.25;;;3.53;;
39276;SDS011;63149;48.086;-1.606;2023-01-10T06:14:57;20.73;;;3.50;;
39276;SDS011;63149;48.086;-1.606;2023-01-10T06:17:25;32.53;;;12.18;;
39276;SDS011;63149;48.086;-1.606;2023-01-10T06:19:53;26.95;;;6.45;;
39276;SDS011;63149;48.086;-1.606;2023-01-10T06:22:20;25.38;;;5.85;;
39276;SDS011;63149;48.086;-1.606;2023-01-10T06:24:47;29.27;;;4.50;;
39276;SDS011;63149;48.086;-1.606;2023-01-10T06:27:14;24.23;;;3.72;;
39276;SDS011;63149;48.086;-1.606;2023-01-10T06:29:41;17.92;;;4.15;;
39276;SDS011;63149;48.086;-1.606;2023-01-10T06:32:07;16.83;;;4.18;;
39276;SDS011;63149;48.086;-1.606;2023-01-10T06:34:36;18.38;;;5.07;;
39276;SDS011;63149;48.086;-1.606;2023-01-10T06:37:03;20.25;;;5.45;;
39276;SDS011;63149;48.086;-1.606;2023-01-10T06:39:30;14.30;;;4.32;;
39276;SDS011;63149;48.086;-1.606;2023-01-10T06:41:57;19.38;;;3.95;;
39276;SDS011;63149;48.086;-1.606;2023-01-10T06:44:23;20.25;;;3.65;;
39276;SDS011;63149;48.086;-1.606;2023-01-10T06:46:51;14.48;;;2.65;;
39276;SDS011;63149;48.086;-1.606;2023-01-10T06:49:18;15.95;;;3.50;;
39276;SDS011;63149;48.086;-1.606;2023-01-10T06:51:46;10.68;;;3.00;;
39276;SDS011;63149;48.086;-1.606;2023-01-10T06:54:13;14.00;;;3.30;;
39276;SDS011;63149;48.086;-1.606;2023-01-10T06:56:40;9.60;;;2.50;;
39276;SDS011;63149;48.086;-1.606;2023-01-10T06:59:07;14.43;;;3.22;;
39276;SDS011;63149;48.086;-1.606;2023-01-10T07:01:34;18.55;;;3.55;;
39276;SDS011;63149;48.086;-1.606;2023-01-10T07:04:01;9.07;;;2.92;;
39276;SDS011;63149;48.086;-1.606;2023-01-10T07:06:28;10.13;;;3.45;;
39276;SDS011;63149;48.086;-1.606;2023-01-10T07:08:57;12.70;;;3.95;;
39276;SDS011;63149;48.086;-1.606;2023-01-10T07:11:24;14.63;;;3.75;;
39276;SDS011;63149;48.086;-1.606;2023-01-10T07:13:51;8.00;;;2.47;;
39276;SDS011;63149;48.086;-1.606;2023-01-10T07:16:18;11.18;;;2.60;;
39276;SDS011;63149;48.086;-1.606;2023-01-10T07:18:45;10.35;;;2.88;;
39276;SDS011;63149;48.086;-1.606;2023-01-10T07:21:12;8.40;;;2.97;;
39276;SDS011;63149;48.086;-1.606;2023-01-10T07:23:42;8.32;;;2.55;;
39276;SDS011;63149;48.086;-1.606;2023-01-10T07:26:10;7.32;;;2.70;;
39276;SDS011;63149;48.086;-1.606;2023-01-10T07:28:41;10.90;;;2.83;;
39276;SDS011;63149;48.086;-1.606;2023-01-10T07:31:08;11.50;;;2.83;;
39276;SDS011;63149;48.086;-1.606;2023-01-10T07:33:37;6.50;;;2.33;;
39276;SDS011;63149;48.086;-1.606;2023-01-10T07:36:04;10.00;;;2.83;;
39276;SDS011;63149;48.086;-1.606;2023-01-10T07:38:31;8.35;;;2.45;;
39276;SDS011;63149;48.086;-1.606;2023-01-10T07:41:00;11.80;;;2.38;;
39276;SDS011;63149;48.086;-1.606;2023-01-10T07:43:29;6.43;;;2.40;;
39276;SDS011;63149;48.086;-1.606;2023-01-10T07:45:56;6.47;;;2.47;;
39276;SDS011;63149;48.086;-1.606;2023-01-10T07:48:24;9.43;;;2.45;;
39276;SDS011;63149;48.086;-1.606;2023-01-10T07:50:54;7.43;;;2.35;;
39276;SDS011;63149;48.086;-1.606;2023-01-10T07:53:21;7.88;;;2.58;;
39276;SDS011;63149;48.086;-1.606;2023-01-10T07:55:48;5.13;;;2.50;;
39276;SDS011;63149;48.086;-1.606;2023-01-10T07:58:15;7.43;;;2.53;;
39276;SDS011;63149;48.086;-1.606;2023-01-10T08:00:43;7.47;;;3.38;;
39276;SDS011;63149;48.086;-1.606;2023-01-10T08:03:13;6.22;;;2.72;;
39276;SDS011;63149;48.086;-1.606;2023-01-10T08:05:40;8.68;;;3.58;;
39276;SDS011;63149;48.086;-1.606;2023-01-10T08:08:07;7.20;;;4.40;;
39276;SDS011;63149;48.086;-1.606;2023-01-10T08:10:36;10.93;;;3.83;;
39276;SDS011;63149;48.086;-1.606;2023-01-10T08:13:04;4.93;;;3.22;;
39276;SDS011;63149;48.086;-1.606;2023-01-10T08:15:31;5.10;;;2.80;;
39276;SDS011;63149;48.086;-1.606;2023-01-10T08:18:00;7.70;;;4.35;;
39276;SDS011;63149;48.086;-1.606;2023-01-10T08:20:27;8.30;;;4.50;;
39276;SDS011;63149;48.086;-1.606;2023-01-10T08:22:55;6.80;;;3.67;;
39276;SDS011;63149;48.086;-1.606;2023-01-10T08:25:22;8.25;;;4.22;;
39276;SDS011;63149;48.086;-1.606;2023-01-10T08:27:49;7.05;;;4.05;;
39276;SDS011;63149;48.086;-1.606;2023-01-10T08:30:16;7.45;;;3.22;;
39276;SDS011;63149;48.086;-1.606;2023-01-10T08:32:43;7.65;;;3.08;;
39276;SDS011;63149;48.086;-1.606;2023-01-10T08:35:12;7.30;;;3.20;;
39276;SDS011;63149;48.086;-1.606;2023-01-10T08:37:39;7.20;;;4.13;;
39276;SDS011;63149;48.086;-1.606;2023-01-10T08:40:06;6.35;;;3.38;;
39276;SDS011;63149;48.086;-1.606;2023-01-10T08:42:34;4.72;;;2.92;;
39276;SDS011;63149;48.086;-1.606;2023-01-10T08:45:01;7.28;;;3.42;;
39276;SDS011;63149;48.086;-1.606;2023-01-10T08:47:28;7.85;;;3.50;;
39276;SDS011;63149;48.086;-1.606;2023-01-10T08:49:55;12.35;;;3.72;;
39276;SDS011;63149;48.086;-1.606;2023-01-10T08:52:23;8.90;;;4.15;;
39276;SDS011;63149;48.086;-1.606;2023-01-10T08:54:50;10.07;;;3.67;;
39276;SDS011;63149;48.086;-1.606;2023-01-10T08:57:17;6.85;;;3.58;;
39276;SDS011;63149;48.086;-1.606;2023-01-10T08:59:44;9.05;;;4.20;;
39276;SDS011;63149;48.086;-1.606;2023-01-10T09:02:11;6.88;;;3.80;;
39276;SDS011;63149;48.086;-1.606;2023-01-10T09:04:39;10.77;;;4.45;;
39276;SDS011;63149;48.086;-1.606;2023-01-10T09:07:05;10.73;;;4.18;;
39276;SDS011;63149;48.086;-1.606;2023-01-10T09:09:34;12.15;;;4.22;;
39276;SDS011;63149;48.086;-1.606;2023-01-10T09:12:02;11.63;;;4.53;;
39276;SDS011;63149;48.086;-1.606;2023-01-10T09:14:49;12.18;;;5.05;;
39276;SDS011;63149;48.086;-1.606;2023-01-10T09:17:16;14.40;;;5.90;;
39276;SDS011;63149;48.086;-1.606;2023-01-10T09:19:43;15.68;;;5.97;;
39276;SDS011;63149;48.086;-1.606;2023-01-10T09:22:10;19.30;;;5.65;;
39276;SDS011;63149;48.086;-1.606;2023-01-10T09:24:38;15.27;;;5.10;;
39276;SDS011;63149;48.086;-1.606;2023-01-10T09:27:05;13.48;;;4.75;;
39276;SDS011;63149;48.086;-1.606;2023-01-10T09:29:32;16.08;;;5.05;;
39276;SDS011;63149;48.086;-1.606;2023-01-10T09:31:59;18.30;;;6.15;;
39276;SDS011;63149;48.086;-1.606;2023-01-10T09:34:26;17.90;;;5.45;;
39276;SDS011;63149;48.086;-1.606;2023-01-10T09:36:53;17.50;;;4.68;;
39276;SDS011;63149;48.086;-1.606;2023-01-10T09:39:20;22.88;;;4.95;;
39276;SDS011;63149;48.086;-1.606;2023-01-10T09:41:52;19.98;;;4.88;;
39276;SDS011;63149;48.086;-1.606;2023-01-10T09:44:35;18.48;;;4.93;;
39276;SDS011;63149;48.086;-1.606;2023-01-10T09:47:08;16.67;;;5.47;;
39276;SDS011;63149;48.086;-1.606;2023-01-10T09:49:43;23.75;;;6.07;;
39276;SDS011;63149;48.086;-1.606;2023-01-10T09:52:18;23.42;;;5.35;;
39276;SDS011;63149;48.086;-1.606;2023-01-10T09:54:49;20.30;;;5.15;;
39276;SDS011;63149;48.086;-1.606;2023-01-10T09:57:20;28.67;;;5.63;;
39276;SDS011;63149;48.086;-1.606;2023-01-10T09:59:48;27.65;;;4.97;;
39276;SDS011;63149;48.086;-1.606;2023-01-10T10:02:21;22.00;;;5.00;;
39276;SDS011;63149;48.086;-1.606;2023-01-10T10:04:57;18.17;;;5.30;;
39276;SDS011;63149;48.086;-1.606;2023-01-10T10:07:33;27.58;;;5.25;;
39276;SDS011;63149;48.086;-1.606;2023-01-10T10:10:00;30.23;;;5.32;;
39276;SDS011;63149;48.086;-1.606;2023-01-10T10:12:32;30.77;;;5.43;;
39276;SDS011;63149;48.086;-1.606;2023-01-10T10:15:11;26.83;;;5.53;;
39276;SDS011;63149;48.086;-1.606;2023-01-10T10:17:47;24.58;;;5.53;;
39276;SDS011;63149;48.086;-1.606;2023-01-10T10:20:22;24.33;;;5.13;;
39276;SDS011;63149;48.086;-1.606;2023-01-10T10:23:05;23.20;;;4.70;;
39276;SDS011;63149;48.086;-1.606;2023-01-10T10:25:54;35.53;;;5.63;;
39276;SDS011;63149;48.086;-1.606;2023-01-10T10:28:33;34.10;;;5.38;;
39276;SDS011;63149;48.086;-1.606;2023-01-10T10:31:17;38.90;;;5.13;;
39276;SDS011;63149;48.086;-1.606;2023-01-10T10:33:52;45.10;;;4.97;;
39276;SDS011;63149;48.086;-1.606;2023-01-10T10:36:26;38.42;;;4.38;;
39276;SDS011;63149;48.086;-1.606;2023-01-10T10:39:01;31.08;;;5.93;;
39276;SDS011;63149;48.086;-1.606;2023-01-10T10:41:29;43.92;;;5.95;;
39276;SDS011;63149;48.086;-1.606;2023-01-10T10:44:15;23.92;;;3.55;;
39276;SDS011;63149;48.086;-1.606;2023-01-10T10:46:52;33.78;;;5.40;;
39276;SDS011;63149;48.086;-1.606;2023-01-10T10:49:25;34.90;;;5.30;;
39276;SDS011;63149;48.086;-1.606;2023-01-10T10:52:02;44.60;;;7.45;;
39276;SDS011;63149;48.086;-1.606;2023-01-10T10:54:33;33.25;;;5.20;;
39276;SDS011;63149;48.086;-1.606;2023-01-10T10:57:02;50.35;;;5.22;;
39276;SDS011;63149;48.086;-1.606;2023-01-10T10:59:30;51.00;;;6.47;;
39276;SDS011;63149;48.086;-1.606;2023-01-10T11:01:57;40.90;;;5.85;;
39276;SDS011;63149;48.086;-1.606;2023-01-10T11:04:24;43.63;;;6.60;;
39276;SDS011;63149;48.086;-1.606;2023-01-10T11:06:53;34.97;;;5.03;;
39276;SDS011;63149;48.086;-1.606;2023-01-10T11:09:21;58.67;;;7.28;;
39276;SDS011;63149;48.086;-1.606;2023-01-10T11:11:53;40.80;;;4.50;;
39276;SDS011;63149;48.086;-1.606;2023-01-10T11:17:17;49.35;;;6.05;;
39276;SDS011;63149;48.086;-1.606;2023-01-10T11:19:56;45.55;;;5.50;;
39276;SDS011;63149;48.086;-1.606;2023-01-10T11:22:26;40.45;;;4.88;;
39276;SDS011;63149;48.086;-1.606;2023-01-10T11:24:55;44.67;;;4.93;;
39276;SDS011;63149;48.086;-1.606;2023-01-10T11:27:25;37.58;;;5.30;;
39276;SDS011;63149;48.086;-1.606;2023-01-10T11:29:56;47.30;;;5.78;;
39276;SDS011;63149;48.086;-1.606;2023-01-10T11:32:30;38.65;;;6.05;;
39276;SDS011;63149;48.086;-1.606;2023-01-10T11:35:00;54.60;;;6.53;;
39276;SDS011;63149;48.086;-1.606;2023-01-10T11:37:30;41.22;;;6.03;;
39276;SDS011;63149;48.086;-1.606;2023-01-10T11:40:17;46.55;;;6.05;;
39276;SDS011;63149;48.086;-1.606;2023-01-10T11:42:47;36.78;;;5.90;;
39276;SDS011;63149;48.086;-1.606;2023-01-10T11:45:26;33.70;;;6.80;;
39276;SDS011;63149;48.086;-1.606;2023-01-10T11:47:58;51.00;;;6.63;;
39276;SDS011;63149;48.086;-1.606;2023-01-10T11:50:32;38.28;;;5.13;;
39276;SDS011;63149;48.086;-1.606;2023-01-10T11:53:01;55.65;;;6.63;;
39276;SDS011;63149;48.086;-1.606;2023-01-10T11:55:30;44.15;;;4.93;;
39276;SDS011;63149;48.086;-1.606;2023-01-10T11:58:01;46.22;;;5.20;;
39276;SDS011;63149;48.086;-1.606;2023-01-10T12:03:01;57.33;;;5.78;;
39276;SDS011;63149;48.086;-1.606;2023-01-10T12:05:39;43.63;;;5.82;;
39276;SDS011;63149;48.086;-1.606;2023-01-10T12:08:10;48.35;;;6.43;;
39276;SDS011;63149;48.086;-1.606;2023-01-10T12:10:59;35.42;;;4.10;;
39276;SDS011;63149;48.086;-1.606;2023-01-10T12:13:29;47.42;;;5.75;;
39276;SDS011;63149;48.086;-1.606;2023-01-10T12:16:20;42.80;;;5.95;;
39276;SDS011;63149;48.086;-1.606;2023-01-10T12:18:49;45.60;;;5.50;;
39276;SDS011;63149;48.086;-1.606;2023-01-10T12:21:19;38.25;;;4.55;;
39276;SDS011;63149;48.086;-1.606;2023-01-10T12:23:52;44.03;;;6.03;;
39276;SDS011;63149;48.086;-1.606;2023-01-10T12:26:22;37.88;;;6.50;;
39276;SDS011;63149;48.086;-1.606;2023-01-10T12:28:52;54.33;;;6.13;;
39276;SDS011;63149;48.086;-1.606;2023-01-10T12:31:23;51.47;;;5.85;;
39276;SDS011;63149;48.086;-1.606;2023-01-10T12:33:52;45.05;;;6.28;;
39276;SDS011;63149;48.086;-1.606;2023-01-10T12:36:38;51.30;;;8.18;;
39276;SDS011;63149;48.086;-1.606;2023-01-10T12:39:13;42.22;;;7.18;;
39276;SDS011;63149;48.086;-1.606;2023-01-10T12:41:44;42.05;;;6.32;;
39276;SDS011;63149;48.086;-1.606;2023-01-10T12:44:35;47.83;;;6.47;;
39276;SDS011;63149;48.086;-1.606;2023-01-10T12:47:08;46.55;;;5.72;;
39276;SDS011;63149;48.086;-1.606;2023-01-10T12:49:43;47.63;;;5.95;;
39276;SDS011;63149;48.086;-1.606;2023-01-10T12:54:44;38.83;;;5.50;;
39276;SDS011;63149;48.086;-1.606;2023-01-10T12:57:16;45.88;;;5.97;;
39276;SDS011;63149;48.086;-1.606;2023-01-10T12:59:49;41.28;;;5.28;;
39276;SDS011;63149;48.086;-1.606;2023-01-10T13:02:20;34.03;;;4.60;;
39276;SDS011;63149;48.086;-1.606;2023-01-10T13:04:50;44.05;;;4.95;;
39276;SDS011;63149;48.086;-1.606;2023-01-10T13:07:20;36.10;;;5.70;;
39276;SDS011;63149;48.086;-1.606;2023-01-10T13:09:52;40.55;;;4.75;;
39276;SDS011;63149;48.086;-1.606;2023-01-10T13:12:20;36.10;;;5.25;;
39276;SDS011;63149;48.086;-1.606;2023-01-10T13:14:58;33.53;;;4.70;;
39276;SDS011;63149;48.086;-1.606;2023-01-10T13:17:35;34.13;;;4.60;;
39276;SDS011;63149;48.086;-1.606;2023-01-10T13:20:25;29.13;;;4.32;;
39276;SDS011;63149;48.086;-1.606;2023-01-10T13:22:56;30.05;;;4.43;;
39276;SDS011;63149;48.086;-1.606;2023-01-10T13:25:24;30.48;;;5.00;;
39276;SDS011;63149;48.086;-1.606;2023-01-10T13:27:56;39.67;;;5.88;;
39276;SDS011;63149;48.086;-1.606;2023-01-10T13:30:27;28.33;;;4.40;;
39276;SDS011;63149;48.086;-1.606;2023-01-10T13:33:02;32.33;;;4.60;;
39276;SDS011;63149;48.086;-1.606;2023-01-10T13:35:37;31.38;;;5.10;;
39276;SDS011;63149;48.086;-1.606;2023-01-10T13:38:14;32.67;;;4.28;;
39276;SDS011;63149;48.086;-1.606;2023-01-10T13:40:54;29.35;;;5.75;;
39276;SDS011;63149;48.086;-1.606;2023-01-10T13:43:30;34.35;;;4.40;;
39276;SDS011;63149;48.086;-1.606;2023-01-10T13:55:01;27.10;;;6.38;;
39276;SDS011;63149;48.086;-1.606;2023-01-10T13:57:50;29.13;;;3.78;;
39276;SDS011;63149;48.086;-1.606;2023-01-10T14:00:20;29.13;;;4.18;;
39276;SDS011;63149;48.086;-1.606;2023-01-10T14:06:32;30.75;;;4.22;;
39276;SDS011;63149;48.086;-1.606;2023-01-10T14:09:27;30.10;;;5.38;;
39276;SDS011;63149;48.086;-1.606;2023-01-10T14:12:01;25.17;;;3.40;;
39276;SDS011;63149;48.086;-1.606;2023-01-10T14:14:30;28.23;;;4.90;;
39276;SDS011;63149;48.086;-1.606;2023-01-10T14:17:09;18.60;;;4.43;;
39276;SDS011;63149;48.086;-1.606;2023-01-10T14:19:40;21.25;;;3.20;;
39276;SDS011;63149;48.086;-1.606;2023-01-10T14:22:20;27.27;;;4.20;;
39276;SDS011;63149;48.086;-1.606;2023-01-10T14:24:52;33.47;;;4.22;;
39276;SDS011;63149;48.086;-1.606;2023-01-10T14:27:20;23.08;;;4.13;;
39276;SDS011;63149;48.086;-1.606;2023-01-10T14:29:48;23.50;;;3.85;;
39276;SDS011;63149;48.086;-1.606;2023-01-10T14:32:23;29.17;;;3.50;;
39276;SDS011;63149;48.086;-1.606;2023-01-10T14:34:57;19.40;;;2.67;;
39276;SDS011;63149;48.086;-1.606;2023-01-10T14:37:28;24.00;;;3.27;;
39276;SDS011;63149;48.086;-1.606;2023-01-10T14:40:04;17.75;;;2.97;;
39276;SDS011;63149;48.086;-1.606;2023-01-10T14:42:40;18.55;;;2.95;;
39276;SDS011;63149;48.086;-1.606;2023-01-10T14:45:12;20.63;;;3.22;;
39276;SDS011;63149;48.086;-1.606;2023-01-10T14:47:46;24.48;;;3.75;;
39276;SDS011;63149;48.086;-1.606;2023-01-10T14:50:26;27.00;;;3.85;;
39276;SDS011;63149;48.086;-1.606;2023-01-10T14:52:56;26.60;;;3.33;;
39276;SDS011;63149;48.086;-1.606;2023-01-10T14:55:24;20.13;;;4.22;;
39276;SDS011;63149;48.086;-1.606;2023-01-10T14:57:52;18.08;;;2.42;;
39276;SDS011;63149;48.086;-1.606;2023-01-10T15:00:24;18.95;;;2.97;;
39276;SDS011;63149;48.086;-1.606;2023-01-10T15:02:52;28.00;;;3.05;;
39276;SDS011;63149;48.086;-1.606;2023-01-10T15:05:20;23.98;;;4.63;;
39276;SDS011;63149;48.086;-1.606;2023-01-10T15:07:49;17.10;;;2.90;;
39276;SDS011;63149;48.086;-1.606;2023-01-10T15:10:19;26.13;;;3.72;;
39276;SDS011;63149;48.086;-1.606;2023-01-10T15:12:51;27.48;;;5.00;;
39276;SDS011;63149;48.086;-1.606;2023-01-10T15:15:21;15.90;;;2.17;;
39276;SDS011;63149;48.086;-1.606;2023-01-10T15:17:54;18.85;;;3.55;;
39276;SDS011;63149;48.086;-1.606;2023-01-10T15:20:22;17.05;;;3.72;;
39276;SDS011;63149;48.086;-1.606;2023-01-10T15:22:53;22.85;;;3.13;;
39276;SDS011;63149;48.086;-1.606;2023-01-10T15:25:25;21.65;;;3.50;;
39276;SDS011;63149;48.086;-1.606;2023-01-10T15:27:57;28.55;;;3.63;;
39276;SDS011;63149;48.086;-1.606;2023-01-10T15:30:27;22.60;;;3.70;;
39276;SDS011;63149;48.086;-1.606;2023-01-10T15:32:56;15.23;;;3.15;;
39276;SDS011;63149;48.086;-1.606;2023-01-10T15:35:28;16.38;;;2.88;;
39276;SDS011;63149;48.086;-1.606;2023-01-10T15:37:56;19.63;;;3.83;;
39276;SDS011;63149;48.086;-1.606;2023-01-10T15:40:29;21.35;;;3.55;;
39276;SDS011;63149;48.086;-1.606;2023-01-10T15:43:16;27.40;;;3.28;;
39276;SDS011;63149;48.086;-1.606;2023-01-10T15:45:49;15.75;;;2.55;;
39276;SDS011;63149;48.086;-1.606;2023-01-10T15:48:24;16.60;;;2.58;;
39276;SDS011;63149;48.086;-1.606;2023-01-10T15:50:57;14.68;;;1.98;;
39276;SDS011;63149;48.086;-1.606;2023-01-10T15:56:23;12.40;;;1.98;;
39276;SDS011;63149;48.086;-1.606;2023-01-10T15:58:54;13.63;;;2.73;;
39276;SDS011;63149;48.086;-1.606;2023-01-10T16:01:22;7.88;;;2.45;;
39276;SDS011;63149;48.086;-1.606;2023-01-10T16:03:50;10.80;;;1.65;;
39276;SDS011;63149;48.086;-1.606;2023-01-10T16:06:22;12.23;;;2.58;;
39276;SDS011;63149;48.086;-1.606;2023-01-10T16:08:51;18.90;;;2.47;;
39276;SDS011;63149;48.086;-1.606;2023-01-10T16:11:21;13.05;;;2.30;;
39276;SDS011;63149;48.086;-1.606;2023-01-10T16:14:22;11.23;;;2.08;;
39276;SDS011;63149;48.086;-1.606;2023-01-10T16:16:49;9.75;;;2.50;;
39276;SDS011;63149;48.086;-1.606;2023-01-10T16:19:16;9.77;;;2.10;;
39276;SDS011;63149;48.086;-1.606;2023-01-10T16:21:44;14.02;;;2.15;;
39276;SDS011;63149;48.086;-1.606;2023-01-10T16:24:15;9.80;;;2.30;;
39276;SDS011;63149;48.086;-1.606;2023-01-10T16:26:44;10.75;;;2.08;;
39276;SDS011;63149;48.086;-1.606;2023-01-10T16:29:12;10.90;;;1.92;;
39276;SDS011;63149;48.086;-1.606;2023-01-10T16:31:40;17.05;;;2.58;;
39276;SDS011;63149;48.086;-1.606;2023-01-10T16:34:07;15.93;;;2.65;;
39276;SDS011;63149;48.086;-1.606;2023-01-10T16:36:34;15.73;;;2.75;;
39276;SDS011;63149;48.086;-1.606;2023-01-10T16:39:04;14.25;;;2.17;;
39276;SDS011;63149;48.086;-1.606;2023-01-10T16:41:36;14.52;;;3.25;;
39276;SDS011;63149;48.086;-1.606;2023-01-10T16:44:23;13.77;;;2.28;;
39276;SDS011;63149;48.086;-1.606;2023-01-10T16:46:51;14.95;;;3.42;;
39276;SDS011;63149;48.086;-1.606;2023-01-10T16:49:18;15.20;;;2.63;;
39276;SDS011;63149;48.086;-1.606;2023-01-10T16:51:46;13.43;;;2.15;;
39276;SDS011;63149;48.086;-1.606;2023-01-10T16:54:13;16.88;;;3.22;;
39276;SDS011;63149;48.086;-1.606;2023-01-10T16:56:43;19.98;;;3.03;;
39276;SDS011;63149;48.086;-1.606;2023-01-10T16:59:11;17.15;;;3.10;;
39276;SDS011;63149;48.086;-1.606;2023-01-10T17:01:39;17.50;;;3.08;;
39276;SDS011;63149;48.086;-1.606;2023-01-10T17:04:13;19.40;;;3.72;;
39276;SDS011;63149;48.086;-1.606;2023-01-10T17:06:44;11.55;;;2.70;;
39276;SDS011;63149;48.086;-1.606;2023-01-10T17:09:12;21.27;;;3.58;;
39276;SDS011;63149;48.086;-1.606;2023-01-10T17:11:43;17.65;;;3.10;;
39276;SDS011;63149;48.086;-1.606;2023-01-10T17:14:10;17.73;;;2.80;;
39276;SDS011;63149;48.086;-1.606;2023-01-10T17:16:39;15.65;;;3.00;;
39276;SDS011;63149;48.086;-1.606;2023-01-10T17:19:06;13.93;;;3.08;;
39276;SDS011;63149;48.086;-1.606;2023-01-10T17:21:35;16.50;;;2.65;;
39276;SDS011;63149;48.086;-1.606;2023-01-10T17:24:02;22.35;;;3.50;;
39276;SDS011;63149;48.086;-1.606;2023-01-10T17:26:29;20.50;;;3.80;;
39276;SDS011;63149;48.086;-1.606;2023-01-10T17:28:56;15.73;;;3.10;;
39276;SDS011;63149;48.086;-1.606;2023-01-10T17:31:23;16.60;;;2.92;;
39276;SDS011;63149;48.086;-1.606;2023-01-10T17:33:50;18.23;;;2.85;;
39276;SDS011;63149;48.086;-1.606;2023-01-10T17:36:17;15.63;;;2.50;;
39276;SDS011;63149;48.086;-1.606;2023-01-10T17:38:46;25.95;;;4.70;;
39276;SDS011;63149;48.086;-1.606;2023-01-10T17:41:13;13.98;;;3.00;;
39276;SDS011;63149;48.086;-1.606;2023-01-10T17:43:40;15.65;;;3.30;;
39276;SDS011;63149;48.086;-1.606;2023-01-10T17:46:07;21.05;;;3.88;;
39276;SDS011;63149;48.086;-1.606;2023-01-10T17:48:35;20.25;;;3.65;;
39276;SDS011;63149;48.086;-1.606;2023-01-10T17:51:02;26.77;;;5.93;;
39276;SDS011;63149;48.086;-1.606;2023-01-10T17:53:29;26.88;;;5.30;;
39276;SDS011;63149;48.086;-1.606;2023-01-10T17:55:57;13.82;;;2.40;;
39276;SDS011;63149;48.086;-1.606;2023-01-10T17:58:25;12.85;;;2.92;;
39276;SDS011;63149;48.086;-1.606;2023-01-10T18:00:53;15.75;;;3.70;;
39276;SDS011;63149;48.086;-1.606;2023-01-10T18:03:20;20.73;;;4.60;;
39276;SDS011;63149;48.086;-1.606;2023-01-10T18:05:47;17.23;;;3.15;;
39276;SDS011;63149;48.086;-1.606;2023-01-10T18:08:15;17.73;;;3.47;;
39276;SDS011;63149;48.086;-1.606;2023-01-10T18:10:42;30.17;;;4.10;;
39276;SDS011;63149;48.086;-1.606;2023-01-10T18:13:11;11.98;;;2.90;;
39276;SDS011;63149;48.086;-1.606;2023-01-10T18:15:39;13.48;;;2.50;;
39276;SDS011;63149;48.086;-1.606;2023-01-10T18:18:07;18.00;;;4.13;;
39276;SDS011;63149;48.086;-1.606;2023-01-10T18:20:37;15.05;;;2.55;;
39276;SDS011;63149;48.086;-1.606;2023-01-10T18:23:05;18.52;;;3.03;;
39276;SDS011;63149;48.086;-1.606;2023-01-10T18:25:51;16.27;;;2.88;;
39276;SDS011;63149;48.086;-1.606;2023-01-10T18:28:21;13.77;;;3.20;;
39276;SDS011;63149;48.086;-1.606;2023-01-10T18:30:48;17.75;;;3.30;;
39276;SDS011;63149;48.086;-1.606;2023-01-10T18:33:15;20.95;;;3.50;;
39276;SDS011;63149;48.086;-1.606;2023-01-10T18:35:42;14.13;;;3.10;;
39276;SDS011;63149;48.086;-1.606;2023-01-10T18:38:10;16.95;;;2.85;;
39276;SDS011;63149;48.086;-1.606;2023-01-10T18:40:38;18.08;;;3.28;;
39276;SDS011;63149;48.086;-1.606;2023-01-10T18:43:06;16.95;;;2.97;;
39276;SDS011;63149;48.086;-1.606;2023-01-10T18:45:39;17.67;;;3.20;;
39276;SDS011;63149;48.086;-1.606;2023-01-10T18:48:07;13.57;;;2.60;;
39276;SDS011;63149;48.086;-1.606;2023-01-10T18:50:34;20.33;;;3.90;;
39276;SDS011;63149;48.086;-1.606;2023-01-10T18:53:02;19.13;;;2.45;;
39276;SDS011;63149;48.086;-1.606;2023-01-10T18:55:29;19.63;;;2.80;;
39276;SDS011;63149;48.086;-1.606;2023-01-10T18:57:56;21.67;;;3.30;;
39276;SDS011;63149;48.086;-1.606;2023-01-10T19:00:23;13.90;;;2.50;;
39276;SDS011;63149;48.086;-1.606;2023-01-10T19:02:51;17.15;;;2.78;;
39276;SDS011;63149;48.086;-1.606;2023-01-10T19:05:21;17.80;;;2.88;;
39276;SDS011;63149;48.086;-1.606;2023-01-10T19:07:49;17.10;;;3.42;;
39276;SDS011;63149;48.086;-1.606;2023-01-10T19:10:16;15.73;;;3.40;;
39276;SDS011;63149;48.086;-1.606;2023-01-10T19:12:43;22.75;;;3.20;;
39276;SDS011;63149;48.086;-1.606;2023-01-10T19:15:10;15.57;;;3.15;;
39276;SDS011;63149;48.086;-1.606;2023-01-10T19:17:37;21.75;;;2.90;;
39276;SDS011;63149;48.086;-1.606;2023-01-10T19:20:06;20.30;;;2.95;;
39276;SDS011;63149;48.086;-1.606;2023-01-10T19:22:34;17.48;;;2.38;;
39276;SDS011;63149;48.086;-1.606;2023-01-10T19:25:01;17.30;;;2.40;;
39276;SDS011;63149;48.086;-1.606;2023-01-10T19:27:28;18.77;;;2.90;;
39276;SDS011;63149;48.086;-1.606;2023-01-10T19:29:56;19.33;;;3.13;;
39276;SDS011;63149;48.086;-1.606;2023-01-10T19:32:23;23.90;;;3.25;;
39276;SDS011;63149;48.086;-1.606;2023-01-10T19:34:51;23.30;;;3.83;;
39276;SDS011;63149;48.086;-1.606;2023-01-10T19:37:19;21.35;;;3.75;;
39276;SDS011;63149;48.086;-1.606;2023-01-10T19:39:46;17.65;;;3.00;;
39276;SDS011;63149;48.086;-1.606;2023-01-10T19:42:13;19.48;;;3.30;;
39276;SDS011;63149;48.086;-1.606;2023-01-10T19:44:40;15.50;;;2.70;;
39276;SDS011;63149;48.086;-1.606;2023-01-10T19:47:07;18.45;;;2.53;;
39276;SDS011;63149;48.086;-1.606;2023-01-10T19:49:35;19.33;;;3.80;;
39276;SDS011;63149;48.086;-1.606;2023-01-10T19:52:03;15.52;;;3.08;;
39276;SDS011;63149;48.086;-1.606;2023-01-10T19:54:31;13.65;;;2.35;;
39276;SDS011;63149;48.086;-1.606;2023-01-10T19:56:58;17.73;;;2.75;;
39276;SDS011;63149;48.086;-1.606;2023-01-10T19:59:26;26.42;;;3.25;;
39276;SDS011;63149;48.086;-1.606;2023-01-10T20:01:55;24.40;;;3.42;;
39276;SDS011;63149;48.086;-1.606;2023-01-10T20:04:22;18.02;;;3.42;;
39276;SDS011;63149;48.086;-1.606;2023-01-10T20:06:49;16.95;;;3.80;;
39276;SDS011;63149;48.086;-1.606;2023-01-10T20:09:16;21.42;;;3.13;;
39276;SDS011;63149;48.086;-1.606;2023-01-10T20:11:45;19.58;;;2.83;;
39276;SDS011;63149;48.086;-1.606;2023-01-10T20:14:13;17.67;;;3.15;;
39276;SDS011;63149;48.086;-1.606;2023-01-10T20:16:41;20.48;;;3.28;;
39276;SDS011;63149;48.086;-1.606;2023-01-10T20:19:08;19.55;;;3.15;;
39276;SDS011;63149;48.086;-1.606;2023-01-10T20:21:36;18.95;;;3.28;;
39276;SDS011;63149;48.086;-1.606;2023-01-10T20:24:06;27.85;;;4.53;;
39276;SDS011;63149;48.086;-1.606;2023-01-10T20:26:35;27.42;;;4.65;;
39276;SDS011;63149;48.086;-1.606;2023-01-10T20:29:04;18.95;;;2.92;;
39276;SDS011;63149;48.086;-1.606;2023-01-10T20:31:31;19.98;;;3.70;;
39276;SDS011;63149;48.086;-1.606;2023-01-10T20:33:58;12.55;;;3.20;;
39276;SDS011;63149;48.086;-1.606;2023-01-10T20:36:25;16.20;;;2.97;;
39276;SDS011;63149;48.086;-1.606;2023-01-10T20:38:52;15.75;;;2.65;;
39276;SDS011;63149;48.086;-1.606;2023-01-10T20:41:20;12.40;;;2.38;;
39276;SDS011;63149;48.086;-1.606;2023-01-10T20:43:48;15.20;;;2.78;;
39276;SDS011;63149;48.086;-1.606;2023-01-10T20:46:18;24.27;;;3.75;;
39276;SDS011;63149;48.086;-1.606;2023-01-10T20:48:46;12.75;;;2.50;;
39276;SDS011;63149;48.086;-1.606;2023-01-10T20:51:15;17.30;;;3.08;;
39276;SDS011;63149;48.086;-1.606;2023-01-10T20:53:44;20.92;;;2.50;;
39276;SDS011;63149;48.086;-1.606;2023-01-10T20:56:13;11.70;;;2.47;;
39276;SDS011;63149;48.086;-1.606;2023-01-10T20:58:42;18.38;;;2.40;;
39276;SDS011;63149;48.086;-1.606;2023-01-10T21:01:09;13.98;;;3.70;;
39276;SDS011;63149;48.086;-1.606;2023-01-10T21:03:40;17.58;;;2.58;;